Huvudsida
METAR-TAF:

METAR-TAF

Flygplatser :

Nouakchotts flygplats

Nouakchott, Mauretanien

latitud: 18-18-36N, longitud: 015-58-11W, höjd: 3 m

Aktuellt väderrapport

Denna rapport gjordes för 35 minuter sedan, klockan 14:00 UTC
Vind 4 kt från nord/nordost, varierande mellan nord och ost/nordost
Temperatur 28°C
Fuktighet 27%
Tryck 1012 hPa
Sikt 10 km eller mer
Inga moln under 1 500 m eller inga cumulonimbus

METAR: GQNO 161400Z 02004KT 350V070 CAVOK 28/07 Q1012 NOSIG

Tid: 14:35 (14:35 UTC)

Väderprognos

Denna rapport gjordes för 3 timmar och 35 minuter sedan, klockan 11:00 UTC
Prognos gäller från 16 kl. 12 UTC till 17 kl. 18 UTC
Vind 12 kt från nord
Sikt: 6000 m
Sannolikhet 30% :
Temporärt
från 17 kl. 02 UTC till 17 kl. 08 UTC
Brutna moln på en höjd av 500 ft

TAF: GQNO 161100Z 1612/1718 36012KT 6000 NSC PROB30 TEMPO 1702/1708 BKN005

Aktuella väderrapporter och prognoser från 4000 flygplatser (METAR- och TAF-rapporter).

De tillgängliga stationerna syns som gula och röda prickar på kartan.

För musen över prickarna för att se namnen på stationerna.

Klicka sedan för att få väderrapporter och prognoser.

För att ändra kartan: Klicka på de gröna knapparna med ett svart kors på för att zooma in; den gröna knappen med ett streck på för att zooma ut; eller på de gröna pilarna för angränsande kartor.


METAR-TAF: